createdAt,value
2017-05-15T00:01:25.386Z,1.28
2017-05-15T00:03:52.010Z,1.56
2017-05-15T00:06:17.911Z,1.48
2017-05-15T00:08:43.785Z,1.54
2017-05-15T00:11:09.652Z,1.62
2017-05-15T00:13:35.655Z,1.58
2017-05-15T00:16:01.537Z,1.54
2017-05-15T00:18:27.466Z,1.68
2017-05-15T00:20:53.336Z,1.64
2017-05-15T00:23:19.213Z,1.60
2017-05-15T00:25:45.188Z,1.62
2017-05-15T00:28:11.064Z,1.30
2017-05-15T00:30:36.968Z,2.16
2017-05-15T00:33:02.840Z,1.64
2017-05-15T00:35:28.741Z,1.10
2017-05-15T00:37:54.691Z,1.76
2017-05-15T00:40:21.313Z,1.50
2017-05-15T00:42:47.188Z,1.40
2017-05-15T00:45:13.062Z,1.52
2017-05-15T00:47:39.687Z,1.82
2017-05-15T00:50:05.642Z,1.28
2017-05-15T00:52:32.261Z,1.90
2017-05-15T00:54:58.893Z,1.58
2017-05-15T00:57:24.771Z,1.84
2017-05-15T00:59:50.644Z,1.30
2017-05-15T01:02:16.646Z,1.82
2017-05-15T01:04:43.301Z,1.80
2017-05-15T01:07:09.904Z,1.70
2017-05-15T01:09:35.801Z,2.28
2017-05-15T01:12:01.666Z,1.20
2017-05-15T01:14:28.376Z,1.76
2017-05-15T01:16:54.251Z,2.18
2017-05-15T01:19:20.147Z,1.22
2017-05-15T01:21:46.772Z,1.30
2017-05-15T01:24:13.393Z,1.56
2017-05-15T01:26:39.444Z,1.24
2017-05-15T01:29:06.110Z,1.86
2017-05-15T01:31:31.996Z,1.98
2017-05-15T01:33:58.633Z,1.38
2017-05-15T01:36:25.256Z,1.68
2017-05-15T01:38:51.477Z,1.86
2017-05-15T01:41:17.364Z,1.76
2017-05-15T01:43:43.232Z,1.98
2017-05-15T01:46:09.854Z,1.56
2017-05-15T01:48:35.717Z,1.20
2017-05-15T01:51:01.677Z,1.26
2017-05-15T01:53:27.558Z,1.78
2017-05-15T01:55:53.479Z,1.62
2017-05-15T01:58:19.349Z,1.74
2017-05-15T02:00:45.236Z,1.38
2017-05-15T02:03:11.187Z,1.70
2017-05-15T02:05:37.063Z,1.44
2017-05-15T02:08:02.964Z,1.80
2017-05-15T02:10:28.849Z,2.02
2017-05-15T02:12:54.725Z,2.18
2017-05-15T02:15:20.681Z,2.34
2017-05-15T02:17:46.565Z,1.38
2017-05-15T02:20:12.597Z,2.24
2017-05-15T02:22:38.471Z,1.60
2017-05-15T02:25:05.098Z,2.16
2017-05-15T02:27:31.057Z,1.94
2017-05-15T02:29:56.947Z,1.82
2017-05-15T02:32:23.555Z,1.66
2017-05-15T02:34:49.452Z,2.52
2017-05-15T02:37:15.369Z,2.00
2017-05-15T02:39:41.335Z,1.90
2017-05-15T02:42:07.226Z,2.84
2017-05-15T02:44:33.095Z,1.90
2017-05-15T02:46:58.973Z,2.02
2017-05-15T02:49:24.856Z,2.34
2017-05-15T02:51:50.818Z,2.10
2017-05-15T02:54:16.697Z,1.74
2017-05-15T02:56:42.572Z,3.56
2017-05-15T02:59:09.181Z,2.68
2017-05-15T03:01:35.065Z,2.76
2017-05-15T03:04:01.038Z,1.98
2017-05-15T03:06:26.922Z,1.90
2017-05-15T03:08:52.800Z,2.56
2017-05-15T03:11:19.427Z,2.98
2017-05-15T03:13:46.041Z,1.92
2017-05-15T03:16:11.997Z,1.98
2017-05-15T03:18:38.624Z,2.40
2017-05-15T03:21:05.246Z,2.62
2017-05-15T03:23:31.195Z,3.00
2017-05-15T03:25:57.853Z,2.26
2017-05-15T03:28:24.262Z,2.14
2017-05-15T03:30:50.884Z,2.92
2017-05-15T03:33:17.507Z,2.12
2017-05-15T03:35:43.412Z,2.30
2017-05-15T03:38:09.298Z,2.86
2017-05-15T03:40:35.260Z,2.72
2017-05-15T03:43:01.155Z,3.12
2017-05-15T03:45:27.028Z,1.92
2017-05-15T03:47:53.646Z,2.74
2017-05-15T03:50:19.537Z,3.12
2017-05-15T03:52:45.517Z,2.86
2017-05-15T03:55:12.127Z,2.78
2017-05-15T03:57:38.764Z,3.30
2017-05-15T04:00:04.672Z,2.60
2017-05-15T04:02:30.565Z,3.60
2017-05-15T04:04:56.531Z,2.94
2017-05-15T04:07:23.164Z,2.94
2017-05-15T04:09:49.797Z,3.22
2017-05-15T04:12:16.416Z,4.26
2017-05-15T04:14:42.295Z,3.82
2017-05-15T04:17:08.276Z,3.36
2017-05-15T04:19:34.932Z,3.06
2017-05-15T04:22:00.980Z,2.66
2017-05-15T04:24:26.944Z,2.80
2017-05-15T04:26:52.886Z,3.00
2017-05-15T04:29:18.857Z,2.60
2017-05-15T04:31:44.739Z,2.74
2017-05-15T04:34:10.608Z,3.46
2017-05-15T04:36:36.500Z,3.54
2017-05-15T04:39:02.380Z,2.88
2017-05-15T04:41:28.324Z,3.64
2017-05-15T04:43:54.194Z,3.60
2017-05-15T04:46:20.077Z,3.12
2017-05-15T04:48:46.144Z,2.60
2017-05-15T04:51:12.060Z,3.44
2017-05-15T04:53:38.054Z,3.60
2017-05-15T04:56:03.920Z,3.86
2017-05-15T04:58:30.547Z,3.08
2017-05-15T05:00:56.415Z,3.36
2017-05-15T05:03:22.326Z,3.18
2017-05-15T05:05:48.362Z,3.10
2017-05-15T05:08:14.226Z,3.26
2017-05-15T05:10:40.123Z,2.80
2017-05-15T05:13:06.038Z,3.64
2017-05-15T05:15:31.907Z,4.32
2017-05-15T05:17:58.703Z,3.42
2017-05-15T05:22:59.843Z,4.46
2017-05-15T05:33:45.121Z,4.14
2017-05-15T05:41:34.729Z,3.48
2017-05-15T05:46:37.761Z,3.80
2017-05-15T05:49:03.753Z,3.08
2017-05-15T05:51:30.380Z,2.92
2017-05-15T05:53:56.259Z,3.02
2017-05-15T05:56:33.201Z,4.56
2017-05-15T05:58:59.106Z,3.08
2017-05-15T06:04:24.971Z,3.80
2017-05-15T06:07:09.527Z,3.22
2017-05-15T06:09:54.000Z,3.30
2017-05-15T06:12:38.557Z,2.62
2017-05-15T06:15:07.197Z,2.42
2017-05-15T06:20:19.707Z,3.68
2017-05-15T06:23:05.143Z,2.82
2017-05-15T06:25:49.481Z,3.32
2017-05-15T06:28:15.428Z,2.48
2017-05-15T06:30:41.346Z,2.30
2017-05-15T06:33:07.236Z,2.76
2017-05-15T06:35:33.124Z,3.32
2017-05-15T06:38:18.365Z,2.48
2017-05-15T06:41:02.792Z,3.14
2017-05-15T06:43:28.664Z,2.96
2017-05-15T06:45:55.300Z,3.18
2017-05-15T06:48:21.186Z,2.20
2017-05-15T06:50:47.131Z,2.74
2017-05-15T06:53:13.003Z,2.94
2017-05-15T06:55:38.956Z,2.58
2017-05-15T06:58:04.844Z,2.40
2017-05-15T07:00:30.720Z,2.50
2017-05-15T07:02:57.408Z,2.48
2017-05-15T07:05:23.283Z,2.02
2017-05-15T07:07:49.903Z,3.18
2017-05-15T07:10:16.532Z,2.68
2017-05-15T07:12:42.488Z,2.50
2017-05-15T07:15:09.088Z,2.70
2017-05-15T07:17:34.997Z,3.88
2017-05-15T07:20:00.972Z,2.50
2017-05-15T07:22:26.880Z,2.00
2017-05-15T07:24:53.489Z,2.22
2017-05-15T07:27:19.366Z,2.08
2017-05-15T07:29:45.239Z,2.04
2017-05-15T07:32:11.938Z,2.30
2017-05-15T07:34:37.860Z,1.94
2017-05-15T07:37:03.724Z,2.22
2017-05-15T07:39:30.379Z,1.92
2017-05-15T07:41:56.265Z,1.36
2017-05-15T07:44:22.235Z,1.52
2017-05-15T07:46:48.092Z,1.68
2017-05-15T07:49:13.971Z,1.60
2017-05-15T07:51:39.856Z,1.40
2017-05-15T07:54:06.465Z,1.12
2017-05-15T07:56:32.718Z,1.10
2017-05-15T07:58:59.325Z,1.12
2017-05-15T08:01:25.208Z,1.60
2017-05-15T08:03:51.094Z,1.48
2017-05-15T08:06:17.708Z,1.22
2017-05-15T08:08:43.689Z,1.20
2017-05-15T08:11:09.571Z,1.28
2017-05-15T08:13:36.172Z,1.06
2017-05-15T08:16:02.056Z,1.02
2017-05-15T08:18:27.928Z,1.02
2017-05-15T08:20:53.887Z,1.36
2017-05-15T08:23:20.488Z,1.06
2017-05-15T08:25:46.393Z,0.80
2017-05-15T08:28:12.270Z,1.10
2017-05-15T08:30:38.164Z,0.90
2017-05-15T08:33:04.862Z,0.82
2017-05-15T08:35:30.739Z,0.80
2017-05-15T08:37:56.598Z,1.12
2017-05-15T08:40:22.562Z,0.82
2017-05-15T08:42:49.180Z,1.08
2017-05-15T08:45:15.141Z,0.80
2017-05-15T08:47:41.022Z,0.84
2017-05-15T08:50:06.885Z,1.18
2017-05-15T08:52:32.753Z,1.16
2017-05-15T08:54:58.661Z,0.90
2017-05-15T08:57:24.675Z,0.88
2017-05-15T08:59:50.541Z,0.86
2017-05-15T09:02:17.157Z,1.10
2017-05-15T09:04:43.034Z,0.48
2017-05-15T09:07:08.903Z,0.64
2017-05-15T09:09:35.597Z,0.48
2017-05-15T09:12:01.459Z,0.80
2017-05-15T09:14:28.075Z,0.50
2017-05-15T09:16:53.992Z,0.68
2017-05-15T09:19:19.869Z,0.52
2017-05-15T09:21:45.923Z,0.76
2017-05-15T09:24:11.789Z,0.54
2017-05-15T09:26:38.392Z,0.96
2017-05-15T09:29:04.267Z,0.54
2017-05-15T09:31:30.137Z,0.70
2017-05-15T09:33:56.081Z,0.50
2017-05-15T09:36:22.719Z,0.80
2017-05-15T09:38:49.328Z,0.70
2017-05-15T09:41:15.211Z,0.90
2017-05-15T09:43:41.086Z,0.86
2017-05-15T09:46:07.788Z,0.78
2017-05-15T09:48:33.661Z,0.82
2017-05-15T09:50:59.585Z,0.60
2017-05-15T09:53:26.195Z,0.70
2017-05-15T09:55:52.060Z,0.60
2017-05-15T09:58:18.121Z,1.00
2017-05-15T10:00:43.996Z,0.70
2017-05-15T10:03:09.878Z,0.90
2017-05-15T10:05:35.773Z,0.50
2017-05-15T10:08:01.665Z,0.74
2017-05-15T10:10:27.847Z,1.08
2017-05-15T10:12:54.460Z,0.50
2017-05-15T10:15:20.360Z,0.60
2017-05-15T10:17:46.228Z,0.72
2017-05-15T10:20:12.837Z,0.76
2017-05-15T10:22:38.837Z,0.82
2017-05-15T10:25:04.714Z,0.58
2017-05-15T10:27:31.332Z,0.66
2017-05-15T10:29:57.193Z,0.90
2017-05-15T10:32:23.086Z,0.60
2017-05-15T10:34:49.847Z,0.70
2017-05-15T10:37:15.715Z,0.52
2017-05-15T10:39:41.587Z,1.12
2017-05-15T10:42:07.480Z,0.80
2017-05-15T10:44:34.083Z,1.08
2017-05-15T10:47:00.049Z,0.72
2017-05-15T10:49:25.928Z,0.64
2017-05-15T10:51:51.803Z,0.64
2017-05-15T10:54:17.677Z,0.62
2017-05-15T10:56:43.577Z,0.68
2017-05-15T10:59:09.692Z,0.50
2017-05-15T11:01:35.564Z,0.60
2017-05-15T11:04:02.175Z,0.54
2017-05-15T11:06:28.123Z,0.74
2017-05-15T11:08:54.746Z,0.70
2017-05-15T11:11:21.361Z,0.84
2017-05-15T11:13:47.408Z,0.46
2017-05-15T11:16:14.015Z,0.60
2017-05-15T11:18:39.923Z,0.82
2017-05-15T11:21:05.881Z,0.48
2017-05-15T11:23:32.492Z,0.50
2017-05-15T11:25:58.365Z,0.60
2017-05-15T11:28:24.333Z,0.80
2017-05-15T11:30:50.235Z,1.42
2017-05-15T11:33:16.109Z,4.40
2017-05-15T11:35:42.918Z,1.00
2017-05-15T11:38:08.798Z,1.94
2017-05-15T11:40:34.679Z,0.64
2017-05-15T11:43:01.374Z,0.60
2017-05-15T11:45:27.278Z,0.92
2017-05-15T11:47:53.146Z,0.82
2017-05-15T11:50:19.075Z,0.80
2017-05-15T11:52:45.696Z,1.22
2017-05-15T11:55:11.579Z,0.70
2017-05-15T11:57:37.596Z,0.78
2017-05-15T12:00:03.557Z,1.20
2017-05-15T12:02:29.420Z,1.00
2017-05-15T12:04:55.496Z,0.64
2017-05-15T12:07:21.387Z,0.86
2017-05-15T12:09:47.264Z,0.84
2017-05-15T12:12:14.051Z,0.80
2017-05-15T12:14:39.963Z,0.68
2017-05-15T12:17:05.848Z,0.94
2017-05-15T12:19:32.491Z,1.04
2017-05-15T12:21:59.107Z,0.86
2017-05-15T12:24:24.979Z,0.88
2017-05-15T12:26:50.856Z,0.86
2017-05-15T12:29:17.515Z,0.60
2017-05-15T12:31:44.112Z,0.60
2017-05-15T12:34:10.032Z,0.76
2017-05-15T12:36:35.948Z,0.84
2017-05-15T12:39:01.823Z,0.64
2017-05-15T12:41:27.696Z,0.80
2017-05-15T12:43:53.574Z,0.60
2017-05-15T12:46:19.445Z,0.90
2017-05-15T12:48:46.093Z,0.82
2017-05-15T12:51:12.708Z,0.74
2017-05-15T12:53:38.608Z,0.66
2017-05-15T12:56:04.478Z,0.72
2017-05-15T12:58:31.141Z,0.50
2017-05-15T13:00:57.020Z,0.98
2017-05-15T13:03:23.637Z,0.70
2017-05-15T13:05:49.510Z,1.00
2017-05-15T13:08:15.381Z,0.76
2017-05-15T13:10:41.262Z,0.60
2017-05-15T13:13:07.125Z,0.78
2017-05-15T13:15:33.046Z,0.50
2017-05-15T13:17:59.667Z,0.62
2017-05-15T13:20:25.520Z,0.60
2017-05-15T13:22:52.135Z,0.86
2017-05-15T13:25:18.055Z,0.74
2017-05-15T13:27:43.930Z,0.76
2017-05-15T13:30:09.810Z,0.90
2017-05-15T13:32:36.444Z,0.84
2017-05-15T13:35:03.069Z,1.06
2017-05-15T13:37:28.962Z,0.80
2017-05-15T13:39:54.849Z,0.74
2017-05-15T13:42:20.725Z,1.00
2017-05-15T13:44:46.624Z,0.90
2017-05-15T13:47:12.512Z,0.80
2017-05-15T13:49:38.396Z,0.72
2017-05-15T13:52:05.015Z,1.04
2017-05-15T13:54:30.900Z,0.78
2017-05-15T13:56:56.772Z,0.90
2017-05-15T13:59:23.384Z,0.70
2017-05-15T14:01:49.284Z,0.76
2017-05-15T14:04:15.166Z,0.76
2017-05-15T14:06:41.045Z,0.70
2017-05-15T14:09:06.919Z,0.74
2017-05-15T14:11:32.817Z,0.84
2017-05-15T14:13:59.420Z,0.70
2017-05-15T14:16:25.308Z,0.80
2017-05-15T14:18:51.184Z,1.02
2017-05-15T14:21:17.797Z,0.82
2017-05-15T14:23:43.703Z,0.72
2017-05-15T14:26:09.598Z,1.10
2017-05-15T14:28:35.472Z,0.52
2017-05-15T14:31:02.097Z,0.78
2017-05-15T14:33:27.971Z,0.94
2017-05-15T14:35:53.876Z,1.00
2017-05-15T14:38:19.805Z,0.98
2017-05-15T14:40:45.759Z,0.90
2017-05-15T14:43:11.623Z,1.06
2017-05-15T14:45:38.254Z,0.72
2017-05-15T14:48:04.894Z,0.80
2017-05-15T14:50:31.594Z,0.96
2017-05-15T14:52:57.467Z,0.82
2017-05-15T14:55:23.360Z,0.92
2017-05-15T14:57:49.324Z,0.90
2017-05-15T15:00:15.199Z,1.12
2017-05-15T15:02:41.207Z,0.70
2017-05-15T15:05:07.184Z,0.80
2017-05-15T15:07:33.076Z,0.86
2017-05-15T15:09:59.686Z,0.80
2017-05-15T15:12:25.630Z,0.86
2017-05-15T15:14:52.305Z,0.86
2017-05-15T15:17:18.224Z,1.02
2017-05-15T15:19:44.166Z,0.88
2017-05-15T15:22:10.034Z,0.98
2017-05-15T15:24:36.656Z,0.74
2017-05-15T15:27:02.633Z,1.08
2017-05-15T15:29:28.515Z,0.80
2017-05-15T15:31:55.140Z,1.20
2017-05-15T15:34:21.759Z,1.10
2017-05-15T15:36:47.632Z,1.92
2017-05-15T15:39:13.529Z,0.80
2017-05-15T15:41:40.151Z,0.80
2017-05-15T15:44:06.032Z,0.64
2017-05-15T15:46:31.956Z,1.10
2017-05-15T15:48:57.806Z,1.26
2017-05-15T15:51:23.675Z,0.90
2017-05-15T15:53:49.561Z,1.00
2017-05-15T15:56:16.185Z,0.80
2017-05-15T15:58:42.068Z,1.00
2017-05-15T16:01:07.989Z,0.80
2017-05-15T16:03:33.895Z,0.70
2017-05-15T16:05:59.772Z,0.72
2017-05-15T16:08:26.426Z,0.92
2017-05-15T16:10:53.051Z,1.10
2017-05-15T16:13:19.677Z,0.92
2017-05-15T16:15:45.565Z,2.16
2017-05-15T16:18:11.477Z,23.58
2017-05-15T16:20:37.380Z,23.88
2017-05-15T16:23:03.271Z,1.08
2017-05-15T16:25:29.919Z,1.10
2017-05-15T16:27:55.811Z,0.94
2017-05-15T16:30:21.699Z,1.40
2017-05-15T16:32:47.575Z,0.92
2017-05-15T16:35:13.452Z,0.80
2017-05-15T16:37:39.333Z,0.80
2017-05-15T16:40:05.225Z,0.94
2017-05-15T16:42:31.085Z,1.30
2017-05-15T16:44:56.960Z,0.84
2017-05-15T16:47:23.604Z,1.10
2017-05-15T16:49:50.227Z,0.80
2017-05-15T16:52:16.853Z,1.12
2017-05-15T16:54:42.759Z,1.00
2017-05-15T16:57:08.646Z,0.90
2017-05-15T16:59:34.525Z,2.22
2017-05-15T17:02:01.152Z,1.10
2017-05-15T17:04:27.089Z,0.82
2017-05-15T17:06:53.288Z,1.10
2017-05-15T17:09:19.171Z,1.42
2017-05-15T17:11:45.028Z,0.96
2017-05-15T17:14:10.933Z,0.98
2017-05-15T17:16:36.803Z,3.72
2017-05-15T17:19:03.670Z,3.12
2017-05-15T17:21:29.576Z,3.42
2017-05-15T17:23:55.910Z,1.62
2017-05-15T17:26:21.757Z,1.20
2017-05-15T17:28:47.929Z,1.36
2017-05-15T17:31:13.804Z,2.18
2017-05-15T17:33:39.717Z,1.28
2017-05-15T17:36:05.610Z,1.50
2017-05-15T17:38:32.559Z,1.54
2017-05-15T17:40:58.600Z,1.82
2017-05-15T17:43:24.493Z,1.50
2017-05-15T17:45:50.378Z,1.68
2017-05-15T17:48:16.262Z,2.24
2017-05-15T17:50:42.145Z,2.20
2017-05-15T17:53:08.821Z,1.78
2017-05-15T17:55:34.732Z,2.16
2017-05-15T17:58:00.825Z,2.12
2017-05-15T18:00:27.445Z,2.32
2017-05-15T18:02:53.435Z,2.50
2017-05-15T18:05:19.291Z,1.90
2017-05-15T18:07:45.912Z,2.44
2017-05-15T18:10:11.840Z,1.94
2017-05-15T18:12:37.761Z,1.98
2017-05-15T18:15:03.691Z,2.40
2017-05-15T18:17:29.559Z,2.00
2017-05-15T18:19:55.464Z,2.72
2017-05-15T18:22:21.368Z,2.62
2017-05-15T18:24:47.254Z,2.48
2017-05-15T18:27:13.237Z,3.08
2017-05-15T18:29:39.128Z,1.80
2017-05-15T18:32:05.019Z,2.04
2017-05-15T18:34:31.656Z,2.54
2017-05-15T18:36:57.532Z,2.20
2017-05-15T18:39:23.404Z,1.70
2017-05-15T18:41:49.443Z,2.08
2017-05-15T18:44:15.351Z,2.16
2017-05-15T18:46:41.220Z,1.54
2017-05-15T18:49:07.107Z,1.92
2017-05-15T18:51:32.981Z,2.18
2017-05-15T18:53:58.915Z,2.02
2017-05-15T18:56:24.787Z,2.00
2017-05-15T18:58:50.685Z,1.98
2017-05-15T19:01:17.400Z,1.96
2017-05-15T19:03:43.282Z,1.90
2017-05-15T19:06:09.274Z,1.70
2017-05-15T19:08:35.155Z,1.92
2017-05-15T19:11:01.576Z,1.56
2017-05-15T19:13:27.441Z,2.00
2017-05-15T19:15:53.749Z,1.90
2017-05-15T19:18:19.757Z,1.66
2017-05-15T19:20:45.635Z,1.50
2017-05-15T19:23:11.513Z,1.36
2017-05-15T19:25:38.431Z,1.48
2017-05-15T19:28:04.367Z,1.40
2017-05-15T19:30:30.247Z,1.56
2017-05-15T19:32:56.120Z,1.52
2017-05-15T19:35:22.837Z,1.66
2017-05-15T19:37:48.701Z,1.60
2017-05-15T19:40:14.594Z,2.34
2017-05-15T19:42:41.234Z,2.14
2017-05-15T19:45:07.106Z,2.14
2017-05-15T19:47:33.028Z,2.40
2017-05-15T19:49:58.940Z,1.82
2017-05-15T19:52:24.998Z,1.68
2017-05-15T19:54:50.902Z,1.58
2017-05-15T19:57:16.965Z,1.58
2017-05-15T19:59:43.581Z,1.92
2017-05-15T20:02:09.773Z,1.74
2017-05-15T20:04:35.657Z,1.90
2017-05-15T20:07:02.512Z,2.28
2017-05-15T20:09:28.463Z,1.52
2017-05-15T20:11:54.301Z,1.96
2017-05-15T20:14:20.449Z,1.68
2017-05-15T20:16:46.446Z,2.66
2017-05-15T20:19:12.327Z,2.24
2017-05-15T20:21:38.293Z,2.56
2017-05-15T20:24:04.365Z,2.62
2017-05-15T20:26:30.261Z,2.72
2017-05-15T20:28:56.881Z,2.92
2017-05-15T20:31:22.839Z,2.78
2017-05-15T20:33:48.660Z,2.60
2017-05-15T20:36:14.860Z,2.40
2017-05-15T20:38:41.044Z,2.06
2017-05-15T20:41:07.866Z,2.22
2017-05-15T20:43:33.790Z,2.08
2017-05-15T20:45:59.938Z,2.20
2017-05-15T20:48:25.819Z,2.04
2017-05-15T20:50:51.702Z,2.20
2017-05-15T20:53:18.459Z,1.72
2017-05-15T20:55:44.317Z,2.26
2017-05-15T20:58:10.435Z,1.82
2017-05-15T21:00:36.304Z,2.08
2017-05-15T21:03:02.482Z,2.12
2017-05-15T21:05:28.437Z,2.36
2017-05-15T21:07:54.305Z,1.62
2017-05-15T21:10:20.196Z,2.20
2017-05-15T21:12:46.828Z,1.84
2017-05-15T21:15:13.463Z,2.46
2017-05-15T21:17:39.420Z,2.40
2017-05-15T21:20:05.300Z,2.00
2017-05-15T21:22:31.205Z,2.40
2017-05-15T21:24:57.114Z,2.60
2017-05-15T21:27:22.989Z,2.72
2017-05-15T21:29:48.952Z,2.18
2017-05-15T21:32:14.812Z,2.36
2017-05-15T21:34:41.420Z,2.22
2017-05-15T21:37:07.311Z,3.02
2017-05-15T21:39:33.187Z,3.34
2017-05-15T21:41:59.892Z,2.86
2017-05-15T21:44:25.763Z,2.76
2017-05-15T21:46:51.645Z,2.34
2017-05-15T21:49:17.538Z,2.90
2017-05-15T21:51:43.412Z,2.50
2017-05-15T21:54:10.059Z,2.64
2017-05-15T21:56:36.259Z,2.36
2017-05-15T21:59:02.268Z,2.74
2017-05-15T22:01:28.177Z,2.94
2017-05-15T22:03:54.044Z,2.78
2017-05-15T22:06:19.920Z,2.74
2017-05-15T22:08:45.819Z,2.48
2017-05-15T22:11:11.710Z,2.82
2017-05-15T22:13:37.594Z,2.78
2017-05-15T22:16:03.480Z,2.72
2017-05-15T22:18:29.360Z,2.88
2017-05-15T22:20:55.976Z,2.30
2017-05-15T22:23:22.613Z,2.78
2017-05-15T22:25:49.318Z,2.46
2017-05-15T22:28:15.189Z,2.38
2017-05-15T22:30:41.069Z,2.40
2017-05-15T22:33:06.949Z,2.48
2017-05-15T22:35:32.822Z,2.78
2017-05-15T22:37:58.801Z,2.24
2017-05-15T22:40:24.683Z,2.24
2017-05-15T22:42:51.290Z,2.50
2017-05-15T22:45:17.172Z,2.52
2017-05-15T22:47:43.540Z,2.14
2017-05-15T22:50:09.510Z,2.38
2017-05-15T22:52:35.430Z,2.44
2017-05-15T22:55:01.302Z,2.44
2017-05-15T22:57:27.183Z,2.94
2017-05-15T22:59:53.048Z,2.88
2017-05-15T23:02:18.912Z,2.56
2017-05-15T23:04:44.797Z,2.72
2017-05-15T23:07:11.524Z,2.68
2017-05-15T23:09:37.501Z,2.48
2017-05-15T23:12:03.420Z,2.50
2017-05-15T23:14:29.376Z,2.38
2017-05-15T23:16:55.247Z,2.70
2017-05-15T23:19:21.196Z,2.72
2017-05-15T23:21:47.094Z,2.60
2017-05-15T23:24:12.968Z,2.60
2017-05-15T23:26:38.863Z,2.66
2017-05-15T23:29:04.799Z,2.62
2017-05-15T23:31:30.679Z,2.64
2017-05-15T23:33:56.552Z,2.06
2017-05-15T23:36:29.636Z,2.96
2017-05-15T23:38:56.264Z,2.58
2017-05-15T23:41:22.911Z,2.88
2017-05-15T23:43:48.940Z,3.00
2017-05-15T23:46:15.557Z,2.78
2017-05-15T23:48:41.556Z,2.58
2017-05-15T23:51:07.426Z,3.28
2017-05-15T23:53:33.303Z,2.90
2017-05-15T23:55:59.184Z,2.46
2017-05-15T23:58:25.059Z,2.52
